createdAt,value
2018-09-27T00:00:43.344Z,4.35
2018-09-27T00:03:12.260Z,3.50
2018-09-27T00:05:41.283Z,3.27
2018-09-27T00:08:10.186Z,4.28
2018-09-27T00:10:39.060Z,2.95
2018-09-27T00:13:07.982Z,2.25
2018-09-27T00:15:36.914Z,3.47
2018-09-27T00:18:06.151Z,4.58
2018-09-27T00:20:35.109Z,2.40
2018-09-27T00:23:04.006Z,3.12
2018-09-27T00:25:32.921Z,3.42
2018-09-27T00:28:02.012Z,7.10
2018-09-27T00:30:30.914Z,3.60
2018-09-27T00:32:59.849Z,6.30
2018-09-27T00:35:28.774Z,4.47
2018-09-27T00:37:57.689Z,3.10
2018-09-27T00:40:26.819Z,2.62
2018-09-27T00:42:55.775Z,3.02
2018-09-27T00:45:24.686Z,7.80
2018-09-27T00:47:53.636Z,3.55
2018-09-27T00:50:22.548Z,4.45
2018-09-27T00:52:51.474Z,3.40
2018-09-27T00:55:20.394Z,3.12
2018-09-27T00:57:49.287Z,3.70
2018-09-27T01:00:18.174Z,4.08
2018-09-27T01:02:47.490Z,3.47
2018-09-27T01:05:16.391Z,2.47
2018-09-27T01:07:45.277Z,2.02
2018-09-27T01:10:14.162Z,3.22
2018-09-27T01:12:42.980Z,3.52
2018-09-27T01:15:11.859Z,2.37
2018-09-27T01:17:40.731Z,3.58
2018-09-27T01:20:09.734Z,3.70
2018-09-27T01:22:38.669Z,3.92
2018-09-27T01:25:08.149Z,1.92
2018-09-27T01:27:37.063Z,4.62
2018-09-27T01:30:06.315Z,3.98
2018-09-27T01:32:35.278Z,2.95
2018-09-27T01:35:04.195Z,4.05
2018-09-27T01:37:33.171Z,4.17
2018-09-27T01:40:02.227Z,2.20
2018-09-27T01:42:31.145Z,2.47
2018-09-27T01:45:00.054Z,3.92
2018-09-27T01:47:28.963Z,3.52
2018-09-27T01:49:57.876Z,1.52
2018-09-27T01:52:26.765Z,2.60
2018-09-27T01:54:56.587Z,3.72
2018-09-27T01:57:25.490Z,2.20
2018-09-27T01:59:54.411Z,1.92
2018-09-27T02:02:23.293Z,2.15
2018-09-27T02:04:52.297Z,2.70
2018-09-27T02:07:21.211Z,2.83
2018-09-27T02:09:50.154Z,3.52
2018-09-27T02:12:19.206Z,2.60
2018-09-27T02:14:48.128Z,2.47
2018-09-27T02:17:17.047Z,2.72
2018-09-27T02:19:45.944Z,4.20
2018-09-27T02:22:14.969Z,2.20
2018-09-27T02:24:44.064Z,2.65
2018-09-27T02:27:12.970Z,2.72
2018-09-27T02:29:41.982Z,2.00
2018-09-27T02:32:10.882Z,2.60
2018-09-27T02:34:39.791Z,3.47
2018-09-27T02:37:08.688Z,3.30
2018-09-27T02:39:37.632Z,1.92
2018-09-27T02:42:06.548Z,2.22
2018-09-27T02:44:35.428Z,2.80
2018-09-27T02:47:04.347Z,1.65
2018-09-27T02:49:33.300Z,2.90
2018-09-27T02:52:02.234Z,2.90
2018-09-27T02:54:31.126Z,2.80
2018-09-27T02:57:00.056Z,2.87
2018-09-27T02:59:28.967Z,2.10
2018-09-27T03:01:57.892Z,3.00
2018-09-27T03:04:26.849Z,2.12
2018-09-27T03:06:55.778Z,2.25
2018-09-27T03:09:24.672Z,3.60
2018-09-27T03:11:53.597Z,2.58
2018-09-27T03:14:22.444Z,2.92
2018-09-27T03:16:51.369Z,2.17
2018-09-27T03:19:20.304Z,1.55
2018-09-27T03:21:49.233Z,2.25
2018-09-27T03:24:18.129Z,6.05
2018-09-27T03:26:47.023Z,3.60
2018-09-27T03:29:15.957Z,2.90
2018-09-27T03:31:44.861Z,2.65
2018-09-27T03:34:13.760Z,3.90
2018-09-27T03:36:42.683Z,2.58
2018-09-27T03:39:11.558Z,3.15
2018-09-27T03:41:40.454Z,4.53
2018-09-27T03:44:09.421Z,3.00
2018-09-27T03:46:38.389Z,3.67
2018-09-27T03:49:07.288Z,2.47
2018-09-27T03:51:36.165Z,3.02
2018-09-27T03:54:05.093Z,4.50
2018-09-27T03:56:33.980Z,3.42
2018-09-27T03:59:03.594Z,3.72
2018-09-27T04:01:32.489Z,4.85
2018-09-27T04:04:01.413Z,3.65
2018-09-27T04:06:30.466Z,4.22
2018-09-27T04:08:59.355Z,3.58
2018-09-27T04:11:28.278Z,3.98
2018-09-27T04:13:57.318Z,3.55
2018-09-27T04:16:26.255Z,3.08
2018-09-27T04:18:55.354Z,3.35
2018-09-27T04:21:24.317Z,2.75
2018-09-27T04:23:53.846Z,3.37
2018-09-27T04:26:22.899Z,5.72
2018-09-27T04:28:51.825Z,5.40
2018-09-27T04:31:20.731Z,4.30
2018-09-27T04:33:49.703Z,5.87
2018-09-27T04:36:18.858Z,4.17
2018-09-27T04:38:47.972Z,5.45
2018-09-27T04:41:16.912Z,4.17
2018-09-27T04:43:45.809Z,5.30
2018-09-27T04:46:14.731Z,4.60
2018-09-27T04:48:43.698Z,4.12
2018-09-27T04:51:12.570Z,2.80
2018-09-27T04:53:41.474Z,3.27
2018-09-27T04:56:10.398Z,3.83
2018-09-27T04:58:39.826Z,4.95
2018-09-27T05:01:09.368Z,3.65
2018-09-27T05:03:38.840Z,4.05
2018-09-27T05:06:07.913Z,5.35
2018-09-27T05:08:36.896Z,4.28
2018-09-27T05:11:05.829Z,3.12
2018-09-27T05:13:34.795Z,3.33
2018-09-27T05:16:03.961Z,4.53
2018-09-27T05:18:33.101Z,3.77
2018-09-27T05:21:02.033Z,6.03
2018-09-27T05:23:31.037Z,3.65
2018-09-27T05:25:59.955Z,4.03
2018-09-27T05:28:28.865Z,5.17
2018-09-27T05:30:57.807Z,3.77
2018-09-27T05:33:26.803Z,6.00
2018-09-27T05:35:55.945Z,8.73
2018-09-27T05:38:24.865Z,6.62
2018-09-27T05:40:53.827Z,6.47
2018-09-27T05:43:22.756Z,7.00
2018-09-27T05:45:51.665Z,7.62
2018-09-27T05:48:20.595Z,6.05
2018-09-27T05:50:49.515Z,3.60
2018-09-27T05:53:18.486Z,8.25
2018-09-27T05:55:47.391Z,6.67
2018-09-27T05:58:16.490Z,5.40
2018-09-27T06:00:45.425Z,10.60
2018-09-27T06:03:14.376Z,3.60
2018-09-27T06:05:43.289Z,6.47
2018-09-27T06:08:12.204Z,6.87
2018-09-27T06:10:41.151Z,3.85
2018-09-27T06:13:10.088Z,10.68
2018-09-27T06:15:39.047Z,3.12
2018-09-27T06:18:08.114Z,6.10
2018-09-27T06:20:37.052Z,5.60
2018-09-27T06:23:06.390Z,5.12
2018-09-27T06:25:35.416Z,8.50
2018-09-27T06:28:04.358Z,6.20
2018-09-27T06:30:33.375Z,5.90
2018-09-27T06:33:02.336Z,5.50
2018-09-27T06:35:31.262Z,6.87
2018-09-27T06:38:00.216Z,5.78
2018-09-27T06:40:29.163Z,5.50
2018-09-27T06:42:58.270Z,7.35
2018-09-27T06:45:27.398Z,9.95
2018-09-27T06:47:56.326Z,6.33
2018-09-27T06:50:25.379Z,4.58
2018-09-27T06:52:54.464Z,5.55
2018-09-27T06:55:23.540Z,4.17
2018-09-27T06:57:52.582Z,6.67
2018-09-27T07:00:21.510Z,4.65
2018-09-27T07:02:50.430Z,4.25
2018-09-27T07:05:19.436Z,6.75
2018-09-27T07:07:48.751Z,7.25
2018-09-27T07:10:17.674Z,6.53
2018-09-27T07:12:46.600Z,6.20
2018-09-27T07:15:15.680Z,4.83
2018-09-27T07:17:44.597Z,6.87
2018-09-27T07:20:13.543Z,5.80
2018-09-27T07:22:42.650Z,4.33
2018-09-27T07:25:11.551Z,7.03
2018-09-27T07:27:40.642Z,5.33
2018-09-27T07:30:09.576Z,7.22
2018-09-27T07:32:38.596Z,11.20
2018-09-27T07:35:07.667Z,6.70
2018-09-27T07:37:36.558Z,5.67
2018-09-27T07:40:05.915Z,7.30
2018-09-27T07:42:34.826Z,7.33
2018-09-27T07:45:03.979Z,7.45
2018-09-27T07:47:32.909Z,8.23
2018-09-27T07:50:01.865Z,6.03
2018-09-27T07:52:30.785Z,7.45
2018-09-27T07:54:59.700Z,6.17
2018-09-27T07:57:28.960Z,7.30
2018-09-27T08:00:00.796Z,7.62
2018-09-27T08:02:29.956Z,7.12
2018-09-27T08:04:59.549Z,6.35
2018-09-27T08:07:28.456Z,9.25
2018-09-27T08:09:57.389Z,10.23
2018-09-27T08:12:26.316Z,9.68
2018-09-27T08:14:55.244Z,9.68
2018-09-27T08:17:24.242Z,10.48
2018-09-27T08:19:53.295Z,8.20
2018-09-27T08:22:22.217Z,7.08
2018-09-27T08:24:51.549Z,12.07
2018-09-27T08:27:20.483Z,9.88
2018-09-27T08:29:49.394Z,9.08
2018-09-27T08:32:18.380Z,10.88
2018-09-27T08:34:47.309Z,9.65
2018-09-27T08:37:16.288Z,11.10
2018-09-27T08:39:45.234Z,14.20
2018-09-27T08:42:14.185Z,10.53
2018-09-27T08:44:43.215Z,12.40
2018-09-27T08:47:12.274Z,13.10
2018-09-27T08:49:41.198Z,11.28
2018-09-27T08:52:11.214Z,10.38
2018-09-27T08:54:40.175Z,13.43
2018-09-27T08:57:09.102Z,13.20
2018-09-27T08:59:38.067Z,10.98
2018-09-27T09:02:07.371Z,9.75
2018-09-27T09:04:36.402Z,10.08
2018-09-27T09:07:05.586Z,11.97
2018-09-27T09:09:34.534Z,10.23
2018-09-27T09:12:04.042Z,11.48
2018-09-27T09:14:33.158Z,18.27
2018-09-27T09:17:02.089Z,11.25
2018-09-27T09:19:31.054Z,11.40
2018-09-27T09:22:00.195Z,9.75
2018-09-27T09:24:29.184Z,10.75
2018-09-27T09:26:58.289Z,15.20
2018-09-27T09:29:27.308Z,14.33
2018-09-27T09:31:56.362Z,10.90
2018-09-27T09:34:25.311Z,13.70
2018-09-27T09:36:54.269Z,11.05
2018-09-27T09:39:23.194Z,10.72
2018-09-27T09:41:52.516Z,12.70
2018-09-27T09:44:21.458Z,10.03
2018-09-27T09:46:51.086Z,9.85
2018-09-27T09:49:20.009Z,12.90
2018-09-27T09:51:48.999Z,10.93
2018-09-27T09:54:17.985Z,9.83
2018-09-27T09:56:46.905Z,11.83
2018-09-27T09:59:15.840Z,10.38
2018-09-27T10:01:45.385Z,9.48
2018-09-27T10:04:14.341Z,10.48
2018-09-27T10:06:43.433Z,9.15
2018-09-27T10:09:12.474Z,9.18
2018-09-27T10:11:41.402Z,10.30
2018-09-27T10:14:10.321Z,9.90
2018-09-27T10:16:39.254Z,8.90
2018-09-27T10:19:08.210Z,8.08
2018-09-27T10:21:37.175Z,7.83
2018-09-27T10:24:06.288Z,6.42
2018-09-27T10:26:35.219Z,7.05
2018-09-27T10:29:04.202Z,9.55
2018-09-27T10:31:33.114Z,10.48
2018-09-27T10:34:02.058Z,7.90
2018-09-27T10:36:30.999Z,8.53
2018-09-27T10:38:59.941Z,8.90
2018-09-27T10:41:28.878Z,10.25
2018-09-27T10:43:57.779Z,11.25
2018-09-27T10:46:26.686Z,6.78
2018-09-27T10:48:55.594Z,7.15
2018-09-27T10:51:24.939Z,7.08
2018-09-27T10:53:53.973Z,8.45
2018-09-27T10:56:23.238Z,7.40
2018-09-27T10:58:52.230Z,13.13
2018-09-27T11:01:21.262Z,7.22
2018-09-27T11:03:50.207Z,6.12
2018-09-27T11:06:19.145Z,5.97
2018-09-27T11:08:48.062Z,6.45
2018-09-27T11:11:17.048Z,8.70
2018-09-27T11:13:46.268Z,4.33
2018-09-27T11:16:15.198Z,6.90
2018-09-27T11:18:44.182Z,5.85
2018-09-27T11:21:13.136Z,8.20
2018-09-27T11:23:42.026Z,5.08
2018-09-27T11:26:11.051Z,4.47
2018-09-27T11:28:45.286Z,4.62
2018-09-27T11:31:19.539Z,3.92
2018-09-27T11:33:48.493Z,4.70
2018-09-27T11:36:17.442Z,5.37
2018-09-27T11:38:46.713Z,6.75
2018-09-27T11:41:15.663Z,4.62
2018-09-27T11:43:44.578Z,6.70
2018-09-27T11:46:13.549Z,5.97
2018-09-27T11:48:42.492Z,7.17
2018-09-27T11:51:11.407Z,7.40
2018-09-27T11:53:40.379Z,11.70
2018-09-27T11:56:09.398Z,13.15
2018-09-27T11:58:38.411Z,4.25
2018-09-27T12:01:07.584Z,5.87
2018-09-27T12:03:36.533Z,6.97
2018-09-27T12:06:05.670Z,4.60
2018-09-27T12:08:34.571Z,5.10
2018-09-27T12:11:03.506Z,5.65
2018-09-27T12:13:32.508Z,8.10
2018-09-27T12:16:01.532Z,5.75
2018-09-27T12:18:30.500Z,4.15
2018-09-27T12:20:59.596Z,7.10
2018-09-27T12:23:28.524Z,3.52
2018-09-27T12:25:57.497Z,6.05
2018-09-27T12:28:26.464Z,6.22
2018-09-27T12:30:55.612Z,6.12
2018-09-27T12:33:24.739Z,6.08
2018-09-27T12:35:53.736Z,6.30
2018-09-27T12:38:22.659Z,6.78
2018-09-27T12:40:51.768Z,6.45
2018-09-27T12:43:20.723Z,7.22
2018-09-27T12:45:49.839Z,6.87
2018-09-27T12:48:18.963Z,6.25
2018-09-27T12:50:47.998Z,8.58
2018-09-27T12:53:16.969Z,4.12
2018-09-27T12:55:46.018Z,5.37
2018-09-27T12:58:14.937Z,5.42
2018-09-27T13:00:43.922Z,5.30
2018-09-27T13:03:12.844Z,4.62
2018-09-27T13:05:41.766Z,3.83
2018-09-27T13:08:10.702Z,4.40
2018-09-27T13:10:39.676Z,4.37
2018-09-27T13:13:08.772Z,6.28
2018-09-27T13:15:37.473Z,4.23
2018-09-27T13:18:06.414Z,2.30
2018-09-27T13:20:35.105Z,3.83
2018-09-27T13:23:03.934Z,3.77
2018-09-27T13:25:33.035Z,2.05
2018-09-27T13:28:02.227Z,1.90
2018-09-27T13:30:31.192Z,2.40
2018-09-27T13:32:59.883Z,1.10
2018-09-27T13:35:28.659Z,3.40
2018-09-27T13:37:57.889Z,2.30
2018-09-27T13:40:26.576Z,2.67
2018-09-27T13:42:55.220Z,2.87
2018-09-27T13:45:24.365Z,2.52
2018-09-27T13:47:52.983Z,2.73
2018-09-27T13:50:21.661Z,3.30
2018-09-27T13:52:50.339Z,2.03
2018-09-27T13:55:19.007Z,3.13
2018-09-27T13:57:47.669Z,3.00
2018-09-27T14:00:16.293Z,1.97
2018-09-27T14:02:44.968Z,3.53
2018-09-27T14:05:13.633Z,3.53
2018-09-27T14:07:42.609Z,3.73
2018-09-27T14:10:11.266Z,5.50
2018-09-27T14:12:39.962Z,1.20
2018-09-27T14:15:08.789Z,3.17
2018-09-27T14:17:37.421Z,3.63
2018-09-27T14:20:07.043Z,3.67
2018-09-27T14:22:35.707Z,5.17
2018-09-27T14:25:04.839Z,4.23
2018-09-27T14:27:33.511Z,3.50
2018-09-27T14:30:02.229Z,6.27
2018-09-27T14:32:30.884Z,2.67
2018-09-27T14:34:59.504Z,5.47
2018-09-27T14:37:28.232Z,3.70
2018-09-27T14:39:56.859Z,7.17
2018-09-27T14:42:25.596Z,4.23
2018-09-27T14:44:54.446Z,4.00
2018-09-27T14:47:23.100Z,3.87
2018-09-27T14:49:51.734Z,5.33
2018-09-27T14:52:20.383Z,4.33
2018-09-27T14:54:49.059Z,1.23
2018-09-27T14:57:17.859Z,3.70
2018-09-27T14:59:46.524Z,2.13
2018-09-27T15:02:15.261Z,4.27
2018-09-27T15:04:44.078Z,2.20
2018-09-27T15:07:12.835Z,2.27
2018-09-27T15:09:41.751Z,3.20
2018-09-27T15:12:10.585Z,2.40
2018-09-27T15:14:39.682Z,3.57
2018-09-27T15:17:08.433Z,2.63
2018-09-27T15:19:37.042Z,2.70
2018-09-27T15:22:06.060Z,3.23
2018-09-27T15:24:34.715Z,5.23
2018-09-27T15:27:03.726Z,3.20
2018-09-27T15:29:32.371Z,2.43
2018-09-27T15:32:01.025Z,2.13
2018-09-27T15:34:29.678Z,5.50
2018-09-27T15:36:58.327Z,2.87
2018-09-27T15:39:26.987Z,2.30
2018-09-27T15:41:55.652Z,1.83
2018-09-27T15:44:24.277Z,4.13
2018-09-27T15:46:52.904Z,2.70
2018-09-27T15:49:21.902Z,4.53
2018-09-27T15:51:50.530Z,4.63
2018-09-27T15:54:19.250Z,4.10
2018-09-27T15:56:47.888Z,2.87
2018-09-27T15:59:16.480Z,3.33
2018-09-27T16:01:45.126Z,5.57
2018-09-27T16:04:13.877Z,2.90
2018-09-27T16:06:42.730Z,2.73
2018-09-27T16:09:12.130Z,3.10
2018-09-27T16:11:41.581Z,4.00
2018-09-27T16:14:10.416Z,2.77
2018-09-27T16:16:41.148Z,2.00
2018-09-27T16:19:09.865Z,3.53
2018-09-27T16:21:38.548Z,2.20
2018-09-27T16:24:07.240Z,5.03
2018-09-27T16:26:35.904Z,6.57
2018-09-27T16:29:04.893Z,3.60
2018-09-27T16:31:33.529Z,4.20
2018-09-27T16:34:02.155Z,3.23
2018-09-27T16:36:30.806Z,5.50
2018-09-27T16:38:59.469Z,7.93
2018-09-27T16:41:28.233Z,8.37
2018-09-27T16:43:57.385Z,9.75
2018-09-27T16:46:26.028Z,7.20
2018-09-27T16:48:55.014Z,11.25
2018-09-27T16:51:24.105Z,11.65
2018-09-27T16:53:52.726Z,7.57
2018-09-27T16:56:21.624Z,8.53
2018-09-27T16:58:50.553Z,6.47
2018-09-27T17:01:19.490Z,6.35
2018-09-27T17:03:48.485Z,6.58
2018-09-27T17:06:17.406Z,8.93
2018-09-27T17:08:46.352Z,9.55
2018-09-27T17:11:15.388Z,4.58
2018-09-27T17:13:44.460Z,6.53
2018-09-27T17:16:13.419Z,11.78
2018-09-27T17:18:42.533Z,12.53
2018-09-27T17:21:11.635Z,6.15
2018-09-27T17:23:40.600Z,10.38
2018-09-27T17:26:10.081Z,11.43
2018-09-27T17:28:39.032Z,8.40
2018-09-27T17:31:08.459Z,8.93
2018-09-27T17:33:37.367Z,11.30
2018-09-27T17:36:06.359Z,10.98
2018-09-27T17:38:35.255Z,10.13
2018-09-27T17:41:04.194Z,10.82
2018-09-27T17:43:33.236Z,9.00
2018-09-27T17:46:02.455Z,9.30
2018-09-27T17:48:31.539Z,7.50
2018-09-27T17:51:00.485Z,7.87
2018-09-27T17:53:29.625Z,6.65
2018-09-27T17:55:58.520Z,7.72
2018-09-27T17:58:27.624Z,8.03
2018-09-27T18:00:56.691Z,9.10
2018-09-27T18:03:25.625Z,16.15
2018-09-27T18:05:54.537Z,8.55
2018-09-27T18:08:23.461Z,7.97
2018-09-27T18:10:52.395Z,9.75
2018-09-27T18:13:21.289Z,9.75
2018-09-27T18:15:50.289Z,10.23
2018-09-27T18:18:19.562Z,8.03
2018-09-27T18:20:48.491Z,11.97
2018-09-27T18:23:17.449Z,9.18
2018-09-27T18:25:46.442Z,12.33
2018-09-27T18:28:15.528Z,11.05
2018-09-27T18:30:44.461Z,9.30
2018-09-27T18:33:13.433Z,12.78
2018-09-27T18:35:42.369Z,11.33
2018-09-27T18:38:11.571Z,12.45
2018-09-27T18:40:40.474Z,9.45
2018-09-27T18:43:09.480Z,13.35
2018-09-27T18:45:38.590Z,10.70
2018-09-27T18:48:07.756Z,12.40
2018-09-27T18:50:36.714Z,10.90
2018-09-27T18:53:05.672Z,11.53
2018-09-27T18:55:34.613Z,12.55
2018-09-27T18:58:03.582Z,14.07
2018-09-27T19:00:32.530Z,16.52
2018-09-27T19:03:01.454Z,15.70
2018-09-27T19:05:30.394Z,19.62
2018-09-27T19:07:59.352Z,16.82
2018-09-27T19:10:28.280Z,15.15
2018-09-27T19:12:57.222Z,12.03
2018-09-27T19:15:26.164Z,12.93
2018-09-27T19:17:55.068Z,8.30
2018-09-27T19:20:23.985Z,8.10
2018-09-27T19:22:52.958Z,10.13
2018-09-27T19:25:21.912Z,9.98
2018-09-27T19:27:50.861Z,7.70
2018-09-27T19:30:19.778Z,8.73
2018-09-27T19:32:48.685Z,7.90
2018-09-27T19:35:17.696Z,5.28
2018-09-27T19:37:46.652Z,6.47
2018-09-27T19:40:15.561Z,7.62
2018-09-27T19:42:44.465Z,8.28
2018-09-27T19:45:13.399Z,7.72
2018-09-27T19:47:42.337Z,8.90
2018-09-27T19:50:11.317Z,9.45
2018-09-27T19:52:41.285Z,7.83
2018-09-27T19:55:10.221Z,7.97
2018-09-27T19:57:39.147Z,8.58
2018-09-27T20:00:08.123Z,6.30
2018-09-27T20:02:37.069Z,5.72
2018-09-27T20:05:06.255Z,6.20
2018-09-27T20:07:35.196Z,10.20
2018-09-27T20:10:04.346Z,5.05
2018-09-27T20:12:33.423Z,7.15
2018-09-27T20:15:02.333Z,6.17
2018-09-27T20:17:31.216Z,7.17
2018-09-27T20:20:00.220Z,6.03
2018-09-27T20:22:29.155Z,9.83
2018-09-27T20:24:58.271Z,4.25
2018-09-27T20:27:27.201Z,4.40
2018-09-27T20:29:56.136Z,7.30
2018-09-27T20:32:25.009Z,6.03
2018-09-27T20:34:53.991Z,5.05
2018-09-27T20:37:23.101Z,6.35
2018-09-27T20:39:52.351Z,6.30
2018-09-27T20:42:21.337Z,3.55
2018-09-27T20:44:50.246Z,6.80
2018-09-27T20:47:19.162Z,4.10
2018-09-27T20:49:48.121Z,4.85
2018-09-27T20:52:17.024Z,3.25
2018-09-27T20:54:45.951Z,3.62
2018-09-27T20:57:14.854Z,6.83
2018-09-27T20:59:43.823Z,6.08
2018-09-27T21:02:12.796Z,3.72
2018-09-27T21:04:41.733Z,5.15
2018-09-27T21:07:10.681Z,3.87
2018-09-27T21:09:39.585Z,5.87
2018-09-27T21:12:08.506Z,6.20
2018-09-27T21:14:37.424Z,5.92
2018-09-27T21:17:06.396Z,3.87
2018-09-27T21:19:35.302Z,4.90
2018-09-27T21:22:04.219Z,5.12
2018-09-27T21:24:33.470Z,3.08
2018-09-27T21:27:02.374Z,5.80
2018-09-27T21:29:31.281Z,5.15
2018-09-27T21:32:00.190Z,6.30
2018-09-27T21:34:29.104Z,4.42
2018-09-27T21:36:58.008Z,3.58
2018-09-27T21:39:26.936Z,5.03
2018-09-27T21:41:56.832Z,6.20
2018-09-27T21:44:25.744Z,4.95
2018-09-27T21:46:54.640Z,4.92
2018-09-27T21:49:23.662Z,4.70
2018-09-27T21:51:52.593Z,4.50
2018-09-27T21:54:21.523Z,5.40
2018-09-27T21:56:50.422Z,5.00
2018-09-27T21:59:19.498Z,6.12
2018-09-27T22:01:48.419Z,4.37
2018-09-27T22:04:17.318Z,5.87
2018-09-27T22:06:46.812Z,6.92
2018-09-27T22:09:15.727Z,5.40
2018-09-27T22:11:44.602Z,6.45
2018-09-27T22:14:13.513Z,3.20
2018-09-27T22:16:42.475Z,4.15
2018-09-27T22:19:11.390Z,5.53
2018-09-27T22:21:40.325Z,5.35
2018-09-27T22:24:09.209Z,3.92
2018-09-27T22:26:38.242Z,7.62
2018-09-27T22:29:07.139Z,5.58
2018-09-27T22:31:36.086Z,4.22
2018-09-27T22:34:05.034Z,5.37
2018-09-27T22:36:33.973Z,5.22
2018-09-27T22:39:03.241Z,7.10
2018-09-27T22:41:32.150Z,6.47
2018-09-27T22:44:01.175Z,6.12
2018-09-27T22:46:30.128Z,4.58
2018-09-27T22:48:58.998Z,6.40
2018-09-27T22:51:27.947Z,5.10
2018-09-27T22:53:56.874Z,3.35
2018-09-27T22:56:25.821Z,7.00
2018-09-27T22:58:54.771Z,3.15
2018-09-27T23:01:23.663Z,5.20
2018-09-27T23:03:52.567Z,5.75
2018-09-27T23:06:21.834Z,5.00
2018-09-27T23:08:50.711Z,6.30
2018-09-27T23:11:19.662Z,10.23
2018-09-27T23:13:48.558Z,5.65
2018-09-27T23:16:17.473Z,4.70
2018-09-27T23:18:46.390Z,5.10
2018-09-27T23:21:15.328Z,2.80
2018-09-27T23:23:44.232Z,4.00
2018-09-27T23:26:13.136Z,6.60
2018-09-27T23:28:42.018Z,5.12
2018-09-27T23:31:10.914Z,2.87
2018-09-27T23:33:39.793Z,3.67
2018-09-27T23:36:08.714Z,4.60
2018-09-27T23:38:37.633Z,3.87
2018-09-27T23:41:06.570Z,3.20
2018-09-27T23:43:35.478Z,4.75
2018-09-27T23:46:04.374Z,4.05
2018-09-27T23:48:33.262Z,6.72
2018-09-27T23:51:02.195Z,5.65
2018-09-27T23:53:31.115Z,5.95
2018-09-27T23:56:00.018Z,5.10
2018-09-27T23:58:28.908Z,5.03
